Time;durP1;ratioP1;P1;durP2;ratioP2;P2;SDS_P1;SDS_P2;PMS_P1;PMS_P2;Temp;Humidity;BMP_temperature;BMP_pressure;BME280_temperature;BME280_humidity;BME280_pressure;Samples;Min_cycle;Max_cycle;Signal;HPM_P1;HPM_P2
2024/04/15 00:00:17;;;;;;;;;;;12.00;99.90;;;;;;5382684;26;19940;-69
2024/04/15 00:02:42;;;;;;;;;;;11.70;99.90;;;;;;5382900;26;19936;-68
2024/04/15 00:05:08;;;;;;;;;;;11.70;99.90;;;;;;5382556;26;19937;-68
2024/04/15 00:07:34;;;;;;;;;;;12.00;99.90;;;;;;5383035;26;19929;-68
2024/04/15 00:09:59;;;;;;;;;;;12.00;99.90;;;;;;5382446;26;19938;-68
2024/04/15 00:12:25;;;;;;;;;;;12.20;99.90;;;;;;5382267;26;19937;-67
2024/04/15 00:14:50;;;;;;;;;;;12.00;99.90;;;;;;5382218;26;20380;-68
2024/04/15 00:17:16;;;;;;;;;;;11.90;99.80;;;;;;5382120;26;19937;-68
2024/04/15 00:19:41;;;;;;;;;;;12.00;99.90;;;;;;5381628;26;19940;-68
2024/04/15 00:22:07;;;;;;;;;;;11.90;99.90;;;;;;5381852;26;19930;-68
2024/04/15 00:24:32;;;;;;;;;;;11.90;99.90;;;;;;5381899;26;20257;-68
2024/04/15 00:26:58;;;;;;;;;;;11.90;99.90;;;;;;5381785;26;20364;-68
2024/04/15 00:29:24;;;;;;;;;;;11.70;99.90;;;;;;5381243;26;20290;-68
2024/04/15 00:31:49;;;;;;;;;;;11.70;99.60;;;;;;5381831;26;20003;-67
2024/04/15 00:34:15;;;;;;;;;;;11.80;99.90;;;;;;5381731;26;19930;-68
2024/04/15 00:36:42;;;;;;;;;;;11.80;99.90;;;;;;5381691;26;19937;-68
2024/04/15 00:39:08;;;;;;;;;;;11.70;99.90;;;;;;5381739;26;19936;-68
2024/04/15 00:41:34;;;;;;;;;;;11.40;99.90;;;;;;5381392;26;19929;-68
2024/04/15 00:43:59;;;;;;;;;;;11.40;99.90;;;;;;5380617;26;19945;-68
2024/04/15 00:46:24;;;;;;;;;;;11.70;99.90;;;;;;5381694;26;20331;-67
2024/04/15 00:48:50;;;;;;;;;;;11.60;99.90;;;;;;5381576;26;19929;-67
2024/04/15 00:51:16;;;;;;;;;;;11.50;99.90;;;;;;5381133;26;20336;-68
2024/04/15 00:53:42;;;;;;;;;;;11.60;99.90;;;;;;5381643;26;20262;-68
2024/04/15 00:56:09;;;;;;;;;;;11.70;99.90;;;;;;5381313;26;19930;-68
2024/04/15 00:58:34;;;;;;;;;;;11.60;99.90;;;;;;5381455;26;20273;-68
2024/04/15 01:01:00;;;;;;;;;;;11.50;99.90;;;;;;5381061;26;19929;-68
2024/04/15 01:03:26;;;;;;;;;;;11.60;99.90;;;;;;5381552;26;19954;-68
2024/04/15 01:05:52;;;;;;;;;;;11.60;99.90;;;;;;5381432;26;19929;-68
2024/04/15 01:08:18;;;;;;;;;;;11.70;99.90;;;;;;5381426;26;20273;-68
2024/04/15 01:10:43;;;;;;;;;;;11.50;99.90;;;;;;5380780;26;19941;-68
2024/04/15 01:13:09;;;;;;;;;;;11.60;99.90;;;;;;5381391;26;20383;-67
2024/04/15 01:15:34;;;;;;;;;;;11.50;99.90;;;;;;5381273;26;19937;-68
2024/04/15 01:18:01;;;;;;;;;;;11.70;99.90;;;;;;5381285;26;19965;-68
2024/04/15 01:20:27;;;;;;;;;;;11.70;99.90;;;;;;5380662;26;19929;-67
2024/04/15 01:23:05;;;;;;;;;;;11.70;99.90;;;;;;5381154;26;19936;-67
2024/04/15 01:25:31;;;;;;;;;;;11.30;99.90;;;;;;5380895;26;19929;-68
2024/04/15 01:27:57;;;;;;;;;;;11.50;99.90;;;;;;5381132;26;20669;-68
2024/04/15 01:30:22;;;;;;;;;;;11.40;99.90;;;;;;5380654;26;20376;-68
2024/04/15 01:32:47;;;;;;;;;;;11.40;99.90;;;;;;5381100;26;19930;-68
2024/04/15 01:35:15;;;;;;;;;;;11.20;99.90;;;;;;5350042;26;19941;-67
2024/04/15 01:37:41;;;;;;;;;;;10.90;99.90;;;;;;5381170;26;19929;-67
2024/04/15 01:40:07;;;;;;;;;;;11.20;99.90;;;;;;5380499;26;19933;-68
2024/04/15 01:42:32;;;;;;;;;;;10.80;99.90;;;;;;5380980;26;19940;-68
2024/04/15 01:44:58;;;;;;;;;;;10.70;99.90;;;;;;5380866;26;19934;-67
2024/04/15 01:47:23;;;;;;;;;;;11.10;99.90;;;;;;5380812;26;19930;-67
2024/04/15 01:49:49;;;;;;;;;;;11.10;99.90;;;;;;5380496;26;20328;-68
2024/04/15 01:52:14;;;;;;;;;;;10.90;99.90;;;;;;5349863;26;19929;-68
2024/04/15 01:54:40;;;;;;;;;;;10.90;99.90;;;;;;5380757;26;20373;-67
2024/04/15 01:57:06;;;;;;;;;;;10.90;99.90;;;;;;5380492;26;19999;-67
2024/04/15 01:59:31;;;;;;;;;;;10.90;99.90;;;;;;5380227;26;19937;-68
2024/04/15 02:01:57;;;;;;;;;;;10.50;99.90;;;;;;5380624;26;20401;-68
2024/04/15 02:04:22;;;;;;;;;;;10.90;99.90;;;;;;5380489;26;20324;-68
2024/04/15 02:06:47;;;;;;;;;;;10.90;99.90;;;;;;5380575;26;19929;-67
2024/04/15 02:09:13;;;;;;;;;;;10.90;99.90;;;;;;5380368;26;19942;-68
2024/04/15 02:11:38;;;;;;;;;;;10.90;99.90;;;;;;5380150;26;19933;-68
2024/04/15 02:14:04;;;;;;;;;;;10.90;99.90;;;;;;5380389;26;19938;-68
2024/04/15 02:16:29;;;;;;;;;;;11.00;99.90;;;;;;5380356;26;19930;-68
2024/04/15 02:18:55;;;;;;;;;;;10.60;99.90;;;;;;5380293;26;19930;-69
2024/04/15 02:21:20;;;;;;;;;;;11.00;99.90;;;;;;5379992;26;19935;-67
2024/04/15 02:23:46;;;;;;;;;;;11.00;99.90;;;;;;5380098;26;19930;-68
2024/04/15 02:26:11;;;;;;;;;;;10.90;99.90;;;;;;5380175;26;19937;-67
2024/04/15 02:28:37;;;;;;;;;;;10.90;99.90;;;;;;5380034;26;20365;-68
2024/04/15 02:31:02;;;;;;;;;;;11.10;99.90;;;;;;5380094;26;19936;-68
2024/04/15 02:33:28;;;;;;;;;;;10.40;99.90;;;;;;5379966;26;19929;-68
2024/04/15 02:35:53;;;;;;;;;;;10.90;99.90;;;;;;5380010;26;19933;-68
2024/04/15 02:38:18;;;;;;;;;;;10.90;99.90;;;;;;5349055;26;19938;-68
2024/04/15 02:40:44;;;;;;;;;;;11.00;99.90;;;;;;5379478;26;19936;-68
2024/04/15 02:43:10;;;;;;;;;;;10.90;99.90;;;;;;5380066;26;20518;-68
2024/04/15 02:45:35;;;;;;;;;;;10.60;99.90;;;;;;5379821;26;19929;-67
2024/04/15 02:48:01;;;;;;;;;;;10.90;99.90;;;;;;5380031;26;19929;-68
2024/04/15 02:50:26;;;;;;;;;;;10.60;99.90;;;;;;5379251;26;19929;-68
2024/04/15 02:52:52;;;;;;;;;;;10.50;99.90;;;;;;5379646;26;19958;-67
2024/04/15 02:55:17;;;;;;;;;;;10.40;99.90;;;;;;5379601;26;20318;-68
2024/04/15 02:57:43;;;;;;;;;;;10.40;99.90;;;;;;5379551;26;20373;-69
2024/04/15 03:00:08;;;;;;;;;;;10.30;99.90;;;;;;5379143;26;19940;-67
2024/04/15 03:02:34;;;;;;;;;;;9.80;99.90;;;;;;5379427;26;19930;-68
2024/04/15 03:04:59;;;;;;;;;;;10.20;99.90;;;;;;5379427;26;19938;-67
2024/04/15 03:07:25;;;;;;;;;;;10.20;99.90;;;;;;5380060;26;20369;-68
2024/04/15 03:09:54;;;;;;;;;;;10.00;99.90;;;;;;5382533;26;19929;-67
2024/04/15 03:12:19;;;;;;;;;;;9.60;99.90;;;;;;5382985;26;19957;-69
2024/04/15 03:14:44;;;;;;;;;;;10.00;99.90;;;;;;5382884;26;19940;-68
2024/04/15 03:17:10;;;;;;;;;;;9.90;99.90;;;;;;5382819;26;19933;-68
2024/04/15 03:19:36;;;;;;;;;;;9.90;99.90;;;;;;5382367;26;19938;-67
2024/04/15 03:22:02;;;;;;;;;;;9.80;99.90;;;;;;5382738;26;20274;-68
2024/04/15 03:24:29;;;;;;;;;;;9.90;99.90;;;;;;5382481;26;19937;-68
2024/04/15 03:26:55;;;;;;;;;;;9.80;99.90;;;;;;5382761;26;19930;-67
2024/04/15 03:29:21;;;;;;;;;;;9.80;99.90;;;;;;5382548;26;20273;-67
2024/04/15 03:31:46;;;;;;;;;;;9.40;99.90;;;;;;5382231;26;19999;-68
2024/04/15 03:34:12;;;;;;;;;;;9.20;99.90;;;;;;5382695;26;19930;-68
2024/04/15 03:36:37;;;;;;;;;;;9.60;99.90;;;;;;5382624;26;19941;-68
2024/04/15 03:39:03;;;;;;;;;;;9.60;99.90;;;;;;5382539;26;20265;-68
2024/04/15 03:41:28;;;;;;;;;;;9.50;99.90;;;;;;5382152;26;19933;-68
2024/04/15 03:43:54;;;;;;;;;;;9.50;99.90;;;;;;5382306;26;19929;-68
2024/04/15 03:46:19;;;;;;;;;;;9.60;99.90;;;;;;5382396;26;20261;-68
2024/04/15 03:48:45;;;;;;;;;;;9.50;99.90;;;;;;5382410;26;19930;-68
2024/04/15 03:51:10;;;;;;;;;;;9.50;99.90;;;;;;5382059;26;19929;-68
2024/04/15 03:53:36;;;;;;;;;;;9.40;99.90;;;;;;5382266;26;19936;-68
2024/04/15 03:56:01;;;;;;;;;;;9.40;99.90;;;;;;5382377;26;20005;-67
2024/04/15 03:58:27;;;;;;;;;;;9.00;99.90;;;;;;5382345;26;19980;-68
2024/04/15 04:00:58;;;;;;;;;;;9.40;99.90;;;;;;5381795;26;19940;-68
2024/04/15 04:03:24;;;;;;;;;;;9.30;99.90;;;;;;5382245;26;19929;-68
2024/04/15 04:05:52;;;;;;;;;;;9.30;99.90;;;;;;5382269;26;19936;-67
2024/04/15 04:08:18;;;;;;;;;;;8.90;99.90;;;;;;5382090;26;19937;-68
2024/04/15 04:10:43;;;;;;;;;;;9.30;99.90;;;;;;5350783;26;19969;-67
2024/04/15 04:13:09;;;;;;;;;;;9.20;99.90;;;;;;5382104;26;19933;-68
2024/04/15 04:15:38;;;;;;;;;;;9.20;99.90;;;;;;5382142;26;19956;-68
2024/04/15 04:18:04;;;;;;;;;;;8.80;99.90;;;;;;5382250;26;20298;-67
2024/04/15 04:20:29;;;;;;;;;;;8.80;99.90;;;;;;5380201;26;19930;-68
2024/04/15 04:22:55;;;;;;;;;;;9.10;99.90;;;;;;5381882;26;20377;-67
2024/04/15 04:25:21;;;;;;;;;;;9.00;99.90;;;;;;5381856;26;19933;-67
2024/04/15 04:27:47;;;;;;;;;;;9.00;99.90;;;;;;5381876;26;20001;-68
2024/04/15 04:30:12;;;;;;;;;;;9.00;99.90;;;;;;5381281;26;19952;-67
2024/04/15 04:32:38;;;;;;;;;;;8.60;99.90;;;;;;5381912;26;19936;-67
2024/04/15 04:35:04;;;;;;;;;;;9.00;99.90;;;;;;5381872;26;19933;-68
2024/04/15 04:37:29;;;;;;;;;;;8.60;99.90;;;;;;5381962;26;20276;-68
2024/04/15 04:39:54;;;;;;;;;;;8.90;99.90;;;;;;5381240;26;19930;-68
2024/04/15 04:42:20;;;;;;;;;;;8.50;99.90;;;;;;5381698;26;20423;-68
2024/04/15 04:44:45;;;;;;;;;;;9.40;99.90;;;;;;5381476;26;19937;-68
2024/04/15 04:47:11;;;;;;;;;;;9.00;99.90;;;;;;5381712;26;19940;-69
2024/04/15 04:49:36;;;;;;;;;;;9.10;99.90;;;;;;5380979;26;19929;-67
2024/04/15 04:52:02;;;;;;;;;;;8.90;99.90;;;;;;5381665;26;20648;-67
2024/04/15 04:54:27;;;;;;;;;;;8.50;99.90;;;;;;5381463;26;19936;-67
2024/04/15 04:56:53;;;;;;;;;;;8.80;99.90;;;;;;5381467;26;19962;-69
2024/04/15 04:59:18;;;;;;;;;;;8.70;99.90;;;;;;5381291;26;20297;-67
2024/04/15 05:01:44;;;;;;;;;;;8.90;99.90;;;;;;5381174;26;19929;-67
2024/04/15 05:04:10;;;;;;;;;;;8.70;99.90;;;;;;5381331;26;19941;-67
2024/04/15 05:06:37;;;;;;;;;;;8.90;99.90;;;;;;5381315;26;19936;-67
2024/04/15 05:09:02;;;;;;;;;;;8.80;99.90;;;;;;5381359;26;19936;-67
2024/04/15 05:11:28;;;;;;;;;;;8.40;99.90;;;;;;5380999;26;19941;-68
2024/04/15 05:13:54;;;;;;;;;;;8.80;99.90;;;;;;5381141;26;19937;-68
2024/04/15 05:16:19;;;;;;;;;;;8.90;99.90;;;;;;5381236;26;19929;-68
2024/04/15 05:18:45;;;;;;;;;;;8.90;99.90;;;;;;5381074;26;20027;-67
2024/04/15 05:21:11;;;;;;;;;;;9.00;99.90;;;;;;5380884;26;20228;-68
2024/04/15 05:23:37;;;;;;;;;;;8.60;99.90;;;;;;5381023;26;19992;-68
2024/04/15 05:26:02;;;;;;;;;;;9.20;99.90;;;;;;5381075;26;19930;-68
2024/04/15 05:28:28;;;;;;;;;;;8.50;99.90;;;;;;5380918;26;19930;-67
2024/04/15 05:30:54;;;;;;;;;;;9.00;99.90;;;;;;5380074;26;19957;-68
2024/04/15 05:33:20;;;;;;;;;;;8.50;99.90;;;;;;5381086;26;19933;-67
2024/04/15 05:35:46;;;;;;;;;;;9.00;99.90;;;;;;5380870;26;19937;-67
2024/04/15 05:38:12;;;;;;;;;;;9.00;99.90;;;;;;5380953;26;20420;-67
2024/04/15 05:40:38;;;;;;;;;;;9.20;99.90;;;;;;5380428;26;20414;-67
2024/04/15 05:43:05;;;;;;;;;;;9.20;99.90;;;;;;5380653;26;19933;-67
2024/04/15 05:45:30;;;;;;;;;;;9.30;99.90;;;;;;5380747;26;19937;-67
2024/04/15 05:47:55;;;;;;;;;;;9.30;99.90;;;;;;5380809;26;20002;-67
2024/04/15 05:50:21;;;;;;;;;;;9.40;99.90;;;;;;5380262;26;19929;-67
2024/04/15 05:52:46;;;;;;;;;;;9.40;99.90;;;;;;5380673;26;19998;-67
2024/04/15 05:55:12;;;;;;;;;;;9.50;99.90;;;;;;5380673;26;19958;-67
2024/04/15 05:57:37;;;;;;;;;;;9.20;99.90;;;;;;5380643;26;19935;-67
2024/04/15 06:00:04;;;;;;;;;;;9.60;98.20;;;;;;5380214;26;20365;-68
2024/04/15 06:02:29;;;;;;;;;;;9.20;95.60;;;;;;5380592;26;19929;-68
2024/04/15 06:04:54;;;;;;;;;;;9.50;94.30;;;;;;5385425;26;19936;-68
2024/04/15 06:07:20;;;;;;;;;;;9.60;97.40;;;;;;5398242;26;19936;-67
2024/04/15 06:09:45;;;;;;;;;;;9.60;95.90;;;;;;5410324;26;19933;-68
2024/04/15 06:12:11;;;;;;;;;;;9.60;94.20;;;;;;5415953;26;19935;-68
2024/04/15 06:14:36;;;;;;;;;;;9.60;97.00;;;;;;5415839;26;19929;-68
2024/04/15 06:17:02;;;;;;;;;;;9.60;95.60;;;;;;5415731;26;19929;-67
2024/04/15 06:19:27;;;;;;;;;;;9.20;94.30;;;;;;5415242;26;19936;-68
2024/04/15 06:21:54;;;;;;;;;;;9.60;93.80;;;;;;5415752;26;19998;-68
2024/04/15 06:24:19;;;;;;;;;;;9.60;93.40;;;;;;5415671;26;20361;-68
2024/04/15 06:26:46;;;;;;;;;;;9.50;94.00;;;;;;5415699;26;19936;-68
2024/04/15 06:29:11;;;;;;;;;;;9.50;95.60;;;;;;5388629;26;19980;-68
2024/04/15 06:31:37;;;;;;;;;;;9.50;95.10;;;;;;5379767;26;19930;-68
2024/04/15 06:34:02;;;;;;;;;;;9.20;94.90;;;;;;5379863;26;20393;-68
2024/04/15 06:36:28;;;;;;;;;;;9.50;96.30;;;;;;5382411;26;20436;-68
2024/04/15 06:38:54;;;;;;;;;;;9.60;96.50;;;;;;5391727;26;19930;-68
2024/04/15 06:41:19;;;;;;;;;;;9.60;95.60;;;;;;5379467;26;19941;-68
2024/04/15 06:43:44;;;;;;;;;;;9.70;96.00;;;;;;5382338;26;19930;-68
2024/04/15 06:46:10;;;;;;;;;;;9.70;95.70;;;;;;5383395;26;19930;-68
2024/04/15 06:48:36;;;;;;;;;;;9.70;95.40;;;;;;5383258;26;19942;-67
2024/04/15 06:51:02;;;;;;;;;;;9.70;94.80;;;;;;5382818;26;19934;-67
2024/04/15 06:53:28;;;;;;;;;;;9.40;94.40;;;;;;5384036;26;19936;-68
2024/04/15 06:55:53;;;;;;;;;;;9.80;93.90;;;;;;5391450;26;19956;-68
2024/04/15 06:58:19;;;;;;;;;;;9.70;93.20;;;;;;5383146;26;19933;-68
2024/04/15 07:00:45;;;;;;;;;;;9.80;94.30;;;;;;5382649;26;19933;-68
2024/04/15 07:03:10;;;;;;;;;;;9.70;94.80;;;;;;5383146;26;20322;-67
2024/04/15 07:05:36;;;;;;;;;;;9.70;96.40;;;;;;5383034;26;19929;-67
2024/04/15 07:08:01;;;;;;;;;;;9.70;96.00;;;;;;5392829;26;20298;-68
2024/04/15 07:10:27;;;;;;;;;;;9.40;98.70;;;;;;5418147;26;19936;-68
2024/04/15 07:12:52;;;;;;;;;;;9.80;97.30;;;;;;5418354;26;20262;-68
2024/04/15 07:15:18;;;;;;;;;;;9.80;96.90;;;;;;5418282;26;19945;-68
2024/04/15 07:17:43;;;;;;;;;;;10.00;97.30;;;;;;5418326;26;19929;-69
2024/04/15 07:20:09;;;;;;;;;;;9.60;99.00;;;;;;5418021;26;19936;-67
2024/04/15 07:22:34;;;;;;;;;;;9.70;95.80;;;;;;5418442;26;19953;-68
2024/04/15 07:25:02;;;;;;;;;;;10.10;97.50;;;;;;5418258;26;19929;-68
2024/04/15 07:27:34;;;;;;;;;;;10.30;98.20;;;;;;5418272;26;20368;-68
2024/04/15 07:30:00;;;;;;;;;;;10.10;94.50;;;;;;5386351;26;20273;-68
2024/04/15 07:32:25;;;;;;;;;;;10.90;99.90;;;;;;5418249;26;19929;-68
2024/04/15 07:34:51;;;;;;;;;;;11.00;90.90;;;;;;5412763;26;20709;-68
2024/04/15 07:37:16;;;;;;;;;;;10.70;68.70;;;;;;5384178;26;19957;-68
2024/04/15 07:39:42;;;;;;;;;;;11.20;60.90;;;;;;5382278;26;19941;-68
2024/04/15 07:42:07;;;;;;;;;;;11.20;45.00;;;;;;5382825;26;19939;-68
2024/04/15 07:44:33;;;;;;;;;;;10.70;46.80;;;;;;5382750;26;19930;-67
2024/04/15 07:46:58;;;;;;;;;;;10.80;43.60;;;;;;5382590;26;19937;-67
2024/04/15 07:49:24;;;;;;;;;;;10.90;46.20;;;;;;5382338;26;19941;-67
2024/04/15 07:51:49;;;;;;;;;;;11.20;55.30;;;;;;5382188;26;19930;-68
2024/04/15 07:54:15;;;;;;;;;;;11.10;49.40;;;;;;5381958;26;19930;-68
2024/04/15 07:56:40;;;;;;;;;;;11.10;46.40;;;;;;5382911;26;20373;-68
2024/04/15 07:59:06;;;;;;;;;;;11.10;45.60;;;;;;5382065;26;19936;-67
2024/04/15 08:01:32;;;;;;;;;;;11.30;46.10;;;;;;5381834;26;19929;-68
2024/04/15 08:03:57;;;;;;;;;;;11.20;53.50;;;;;;5382386;26;19930;-68
2024/04/15 08:06:23;;;;;;;;;;;11.30;47.90;;;;;;5382401;26;19940;-68
2024/04/15 08:08:50;;;;;;;;;;;11.30;44.00;;;;;;5380794;26;19962;-69
2024/04/15 08:11:16;;;;;;;;;;;11.40;37.60;;;;;;5351967;26;19930;-69
2024/04/15 08:13:44;;;;;;;;;;;11.10;31.40;;;;;;5383729;26;19938;-69
2024/04/15 08:16:09;;;;;;;;;;;11.30;27.10;;;;;;5351930;26;19975;-68
2024/04/15 08:18:35;;;;;;;;;;;11.10;32.50;;;;;;5382491;26;20355;-68
2024/04/15 08:21:01;;;;;;;;;;;11.70;28.90;;;;;;5382190;26;19937;-68
2024/04/15 08:23:26;;;;;;;;;;;11.70;24.80;;;;;;5382201;26;19930;-69
2024/04/15 08:25:55;;;;;;;;;;;12.00;17.40;;;;;;5383540;26;19929;-68
2024/04/15 08:28:21;;;;;;;;;;;12.00;12.80;;;;;;5383492;26;19929;-68
2024/04/15 08:30:47;;;;;;;;;;;11.90;14.30;;;;;;5354267;26;20278;-68
2024/04/15 08:33:13;;;;;;;;;;;12.20;11.50;;;;;;5385983;26;19929;-69
2024/04/15 08:35:38;;;;;;;;;;;12.30;9.00;;;;;;5387251;26;19930;-69
2024/04/15 08:38:04;;;;;;;;;;;12.00;5.10;;;;;;5385422;26;20296;-69
2024/04/15 08:40:30;;;;;;;;;;;11.90;3.40;;;;;;5385493;26;19929;-69
2024/04/15 08:42:55;;;;;;;;;;;12.20;4.60;;;;;;5386758;26;20270;-69
2024/04/15 08:45:23;;;;;;;;;;;12.20;5.50;;;;;;5386362;26;19937;-68
2024/04/15 08:47:50;;;;;;;;;;;12.10;4.40;;;;;;5386175;26;19936;-69
2024/04/15 08:50:15;;;;;;;;;;;12.30;2.60;;;;;;5386083;26;19999;-69
2024/04/15 08:52:44;;;;;;;;;;;12.10;1.80;;;;;;5386233;26;19929;-68
2024/04/15 08:55:12;;;;;;;;;;;12.00;1.00;;;;;;5386097;26;19974;-69
2024/04/15 08:57:38;;;;;;;;;;;12.10;1.00;;;;;;5355532;26;19999;-69
2024/04/15 09:00:05;;;;;;;;;;;12.30;1.80;;;;;;5385987;26;19957;-68
2024/04/15 09:02:31;;;;;;;;;;;12.00;1.00;;;;;;5385723;26;19958;-69
2024/04/15 09:04:57;;;;;;;;;;;12.20;1.00;;;;;;5385030;26;19929;-69
2024/04/15 09:07:22;;;;;;;;;;;12.40;1.00;;;;;;5386712;26;19976;-69
2024/04/15 09:09:48;;;;;;;;;;;12.40;1.00;;;;;;5356297;26;20360;-69
2024/04/15 09:12:13;;;;;;;;;;;12.60;1.00;;;;;;5386477;26;20278;-68
2024/04/15 09:14:39;;;;;;;;;;;12.70;1.00;;;;;;5385437;26;19937;-68
2024/04/15 09:17:05;;;;;;;;;;;12.80;1.00;;;;;;5381841;26;20437;-68
2024/04/15 09:19:31;;;;;;;;;;;12.60;1.00;;;;;;5381234;26;19941;-68
2024/04/15 09:21:58;;;;;;;;;;;12.80;1.00;;;;;;5381866;26;19941;-68
2024/04/15 09:24:24;;;;;;;;;;;13.00;1.00;;;;;;5381642;26;19930;-68
2024/04/15 09:26:50;;;;;;;;;;;13.00;1.00;;;;;;5382072;26;19934;-68
2024/04/15 09:29:15;;;;;;;;;;;13.30;1.00;;;;;;5351584;26;19970;-68
2024/04/15 09:31:42;;;;;;;;;;;13.20;1.00;;;;;;5383060;26;19979;-68
2024/04/15 09:34:08;;;;;;;;;;;12.90;1.00;;;;;;5381958;26;19937;-67
2024/04/15 09:36:34;;;;;;;;;;;12.90;1.00;;;;;;5381780;26;19929;-68
2024/04/15 09:39:00;;;;;;;;;;;12.70;1.00;;;;;;5382194;26;19940;-67
2024/04/15 09:41:26;;;;;;;;;;;13.00;1.00;;;;;;5382416;26;19941;-69
2024/04/15 09:43:52;;;;;;;;;;;12.90;1.00;;;;;;5381585;26;19999;-69
2024/04/15 09:46:19;;;;;;;;;;;12.90;1.00;;;;;;5381868;26;20585;-69
2024/04/15 09:48:47;;;;;;;;;;;13.10;1.00;;;;;;5381623;26;19999;-69
2024/04/15 09:51:19;;;;;;;;;;;13.00;1.00;;;;;;5381202;26;19999;-69
2024/04/15 09:53:47;;;;;;;;;;;13.10;1.00;;;;;;5381378;26;19957;-68
2024/04/15 09:56:16;;;;;;;;;;;13.10;1.00;;;;;;5381867;26;19937;-68
2024/04/15 09:58:44;;;;;;;;;;;13.00;1.00;;;;;;5388852;26;19936;-69
2024/04/15 10:01:13;;;;;;;;;;;12.70;1.00;;;;;;5380148;26;20002;-69
2024/04/15 10:03:40;;;;;;;;;;;12.60;1.00;;;;;;5391553;26;20002;-69
2024/04/15 10:06:06;;;;;;;;;;;12.80;1.00;;;;;;5385141;26;19937;-70
2024/04/15 10:08:32;;;;;;;;;;;12.80;1.00;;;;;;5393502;26;19999;-68
2024/04/15 10:10:58;;;;;;;;;;;12.90;1.00;;;;;;5392524;26;20373;-67
2024/04/15 10:13:24;;;;;;;;;;;13.00;1.00;;;;;;5390209;26;20301;-67
2024/04/15 10:15:57;;;;;;;;;;;13.10;1.00;;;;;;5385091;26;19994;-67
2024/04/15 10:18:27;;;;;;;;;;;13.20;1.00;;;;;;5382317;26;19999;-69
2024/04/15 10:20:53;;;;;;;;;;;13.60;1.00;;;;;;5401842;26;19929;-67
2024/04/15 10:23:24;;;;;;;;;;;13.50;1.00;;;;;;5387376;26;19936;-71
2024/04/15 10:25:50;;;;;;;;;;;13.60;1.00;;;;;;5392796;26;19998;-72
2024/04/15 10:28:16;;;;;;;;;;;13.80;1.00;;;;;;5393070;26;20008;-68
2024/04/15 10:30:44;;;;;;;;;;;13.90;1.00;;;;;;5382983;26;19929;-68
2024/04/15 10:33:13;;;;;;;;;;;14.00;1.00;;;;;;5387199;26;19929;-68
2024/04/15 10:35:40;;;;;;;;;;;14.00;1.00;;;;;;5383332;26;19933;-68
2024/04/15 10:38:06;;;;;;;;;;;13.80;1.00;;;;;;5399815;26;19937;-69
2024/04/15 10:40:44;;;;;;;;;;;13.80;1.00;;;;;;5397583;26;19999;-69
2024/04/15 10:43:12;;;;;;;;;;;13.80;1.00;;;;;;5351741;26;19936;-67
2024/04/15 10:45:37;;;;;;;;;;;14.00;1.00;;;;;;5383097;26;20320;-67
2024/04/15 10:48:03;;;;;;;;;;;14.10;1.00;;;;;;5383142;26;19937;-67
2024/04/15 10:50:29;;;;;;;;;;;14.00;1.00;;;;;;5382715;26;19929;-67
2024/04/15 10:52:54;;;;;;;;;;;14.10;1.00;;;;;;5383018;26;19972;-68
2024/04/15 10:55:20;;;;;;;;;;;14.10;1.00;;;;;;5383424;26;19934;-69
2024/04/15 10:57:46;;;;;;;;;;;14.40;1.00;;;;;;5388745;26;19940;-67
2024/04/15 11:00:12;;;;;;;;;;;14.40;1.00;;;;;;5390895;26;19929;-67
2024/04/15 11:02:56;;;;;;;;;;;15.10;1.00;;;;;;5382351;26;19930;-69
2024/04/15 11:05:22;;;;;;;;;;;15.00;1.00;;;;;;5382062;26;19937;-68
2024/04/15 11:07:47;;;;;;;;;;;15.00;1.00;;;;;;5385369;26;19936;-67
2024/04/15 11:10:14;;;;;;;;;;;14.90;1.00;;;;;;5382160;26;19929;-68
2024/04/15 11:12:39;;;;;;;;;;;14.80;1.00;;;;;;5382615;26;20273;-68
2024/04/15 11:15:12;;;;;;;;;;;14.90;1.00;;;;;;5382589;26;19929;-67
2024/04/15 11:17:45;;;;;;;;;;;14.90;1.00;;;;;;5382697;26;19961;-68
2024/04/15 11:20:11;;;;;;;;;;;15.00;1.00;;;;;;5382039;26;19945;-68
2024/04/15 11:22:37;;;;;;;;;;;15.10;1.00;;;;;;5351469;26;20427;-68
2024/04/15 11:25:02;;;;;;;;;;;14.80;1.00;;;;;;5382532;26;19937;-69
2024/04/15 11:27:39;;;;;;;;;;;14.70;1.00;;;;;;5387088;26;19937;-67
2024/04/15 11:30:05;;;;;;;;;;;14.60;1.00;;;;;;5387868;26;19984;-68
2024/04/15 11:32:31;;;;;;;;;;;14.60;1.00;;;;;;5382451;26;19936;-68
2024/04/15 11:34:57;;;;;;;;;;;14.80;1.00;;;;;;5382296;26;19930;-68
2024/04/15 11:37:22;;;;;;;;;;;14.90;1.00;;;;;;5382352;26;19929;-67
2024/04/15 11:39:48;;;;;;;;;;;15.20;1.00;;;;;;5381930;26;19975;-68
2024/04/15 11:42:16;;;;;;;;;;;15.30;1.00;;;;;;5382212;26;19937;-68
2024/04/15 11:44:42;;;;;;;;;;;15.30;1.00;;;;;;5382299;26;19930;-68
2024/04/15 11:47:14;;;;;;;;;;;15.30;1.00;;;;;;5382360;26;19938;-68
2024/04/15 11:49:41;;;;;;;;;;;15.10;1.00;;;;;;5368855;26;19945;-69
2024/04/15 11:52:07;;;;;;;;;;;14.80;1.00;;;;;;5382303;26;19930;-68
2024/04/15 11:54:33;;;;;;;;;;;14.60;1.00;;;;;;5382050;26;20294;-68
2024/04/15 11:56:58;;;;;;;;;;;14.60;1.00;;;;;;5382000;26;20049;-67
2024/04/15 11:59:24;;;;;;;;;;;14.80;1.00;;;;;;5381825;26;20003;-68
2024/04/15 12:01:54;;;;;;;;;;;14.70;1.00;;;;;;5381758;26;19936;-67
2024/04/15 12:04:20;;;;;;;;;;;14.60;1.00;;;;;;5381869;26;19930;-67
2024/04/15 12:06:45;;;;;;;;;;;14.50;1.00;;;;;;5381989;26;19937;-68
2024/04/15 12:09:11;;;;;;;;;;;14.30;1.00;;;;;;5381798;26;19958;-67
2024/04/15 12:11:36;;;;;;;;;;;14.30;1.00;;;;;;5381593;26;19930;-67
2024/04/15 12:14:02;;;;;;;;;;;14.40;1.00;;;;;;5381760;26;20351;-67
2024/04/15 12:16:28;;;;;;;;;;;14.50;1.00;;;;;;5395979;26;19962;-67
2024/04/15 12:18:53;;;;;;;;;;;14.40;1.00;;;;;;5381715;26;19962;-68
2024/04/15 12:21:19;;;;;;;;;;;14.30;1.00;;;;;;5381265;26;19929;-67
2024/04/15 12:23:44;;;;;;;;;;;14.10;1.00;;;;;;5381865;26;19945;-67
2024/04/15 12:26:10;;;;;;;;;;;14.10;1.00;;;;;;5381495;26;19929;-67
2024/04/15 12:28:35;;;;;;;;;;;13.90;1.00;;;;;;5381547;26;19929;-68
2024/04/15 12:31:01;;;;;;;;;;;13.90;1.00;;;;;;5381318;26;19999;-66
2024/04/15 12:33:26;;;;;;;;;;;13.70;1.00;;;;;;5381478;26;19929;-67
2024/04/15 12:35:52;;;;;;;;;;;13.70;1.00;;;;;;5388042;26;20365;-68
2024/04/15 12:38:18;;;;;;;;;;;13.60;1.00;;;;;;5385805;26;19937;-68
2024/04/15 12:40:44;;;;;;;;;;;13.40;1.00;;;;;;5379691;26;19999;-67
2024/04/15 12:43:09;;;;;;;;;;;13.70;1.00;;;;;;5381516;26;20366;-67
2024/04/15 12:45:35;;;;;;;;;;;13.70;1.00;;;;;;5381083;26;19941;-67
2024/04/15 12:48:01;;;;;;;;;;;13.70;1.00;;;;;;5386041;26;19937;-67
2024/04/15 12:50:26;;;;;;;;;;;13.90;1.00;;;;;;5393941;26;19999;-67
2024/04/15 12:52:52;;;;;;;;;;;13.90;1.00;;;;;;5384563;26;19929;-67
2024/04/15 12:55:18;;;;;;;;;;;13.90;1.00;;;;;;5381180;26;19930;-68
2024/04/15 12:57:44;;;;;;;;;;;14.40;1.00;;;;;;5378063;26;19929;-68
2024/04/15 13:00:09;;;;;;;;;;;14.70;1.00;;;;;;5380879;26;19934;-68
2024/04/15 13:02:38;;;;;;;;;;;15.60;1.00;;;;;;5381225;26;20269;-68
2024/04/15 13:05:09;;;;;;;;;;;16.20;1.00;;;;;;5380685;26;20370;-68
2024/04/15 13:07:35;;;;;;;;;;;16.10;1.00;;;;;;5382169;26;19971;-68
2024/04/15 13:10:01;;;;;;;;;;;15.80;1.00;;;;;;5380932;26;20269;-69
2024/04/15 13:12:26;;;;;;;;;;;15.80;1.00;;;;;;5350519;26;19929;-68
2024/04/15 13:14:52;;;;;;;;;;;15.90;1.00;;;;;;5396761;26;19936;-68
2024/04/15 13:17:18;;;;;;;;;;;15.90;1.00;;;;;;5405371;26;20332;-67
2024/04/15 13:19:43;;;;;;;;;;;15.60;1.00;;;;;;5380085;26;20265;-67
2024/04/15 13:22:09;;;;;;;;;;;15.30;1.00;;;;;;5381003;26;19933;-67
2024/04/15 13:24:35;;;;;;;;;;;14.90;1.00;;;;;;5380769;26;20393;-67
2024/04/15 13:27:01;;;;;;;;;;;14.60;1.00;;;;;;5380449;26;20343;-67
2024/04/15 13:29:28;;;;;;;;;;;14.30;1.00;;;;;;5379491;26;20164;-67
2024/04/15 13:31:54;;;;;;;;;;;13.10;1.00;;;;;;5380272;26;19989;-67
2024/04/15 13:34:19;;;;;;;;;;;12.60;1.00;;;;;;5379940;26;19937;-69
2024/04/15 13:36:48;;;;;;;;;;;12.10;1.00;;;;;;5349907;26;19929;-69
2024/04/15 13:39:13;;;;;;;;;;;11.90;1.00;;;;;;5380598;26;19937;-68
2024/04/15 13:41:39;;;;;;;;;;;11.60;1.00;;;;;;5379702;26;19995;-68
2024/04/15 13:44:04;;;;;;;;;;;11.30;6.10;;;;;;5380462;26;19937;-68
2024/04/15 13:46:30;;;;;;;;;;;11.80;1.00;;;;;;5380319;26;19933;-68
2024/04/15 13:48:55;;;;;;;;;;;12.00;1.00;;;;;;5379688;26;20273;-68
2024/04/15 13:51:21;;;;;;;;;;;11.80;1.00;;;;;;5379267;26;19929;-67
2024/04/15 13:53:46;;;;;;;;;;;12.50;1.00;;;;;;5379860;26;19956;-67
2024/04/15 13:56:12;;;;;;;;;;;12.90;1.00;;;;;;5379656;26;20476;-68
2024/04/15 13:58:38;;;;;;;;;;;13.30;1.00;;;;;;5379779;26;19937;-68
2024/04/15 14:01:04;;;;;;;;;;;14.00;1.00;;;;;;5379896;26;19967;-68
2024/04/15 14:03:30;;;;;;;;;;;15.00;1.00;;;;;;5379919;26;20346;-68
2024/04/15 14:05:55;;;;;;;;;;;15.40;1.00;;;;;;5380159;26;19937;-68
2024/04/15 14:08:21;;;;;;;;;;;15.30;1.00;;;;;;5380181;26;19999;-68
2024/04/15 14:10:47;;;;;;;;;;;15.70;1.00;;;;;;5379160;26;20491;-68
2024/04/15 14:13:12;;;;;;;;;;;15.50;1.00;;;;;;5380023;26;19937;-69
2024/04/15 14:15:38;;;;;;;;;;;15.20;1.00;;;;;;5379639;26;19930;-68
2024/04/15 14:18:04;;;;;;;;;;;14.80;1.00;;;;;;5349249;26;19966;-68